Arbúcies





Hora UTC 12:15
Temperatura 14.6 ºC
Humitat 38.2 %
Pressió 1020.0 hPa
Pluja 0.0 mm
Velocitat vent 4.4 km/h
Direcció vent ENE
Radiació solar 458.0 W/m²

Dades diàries 2021-01-17



Hora UTC (hivern +1h; estiu +2h)
Temperatura (ºC) Humitat (%) Pressió (hPa) Velocitat vent (km/h) Precipitació (mm) Radiació solar (W/m²)
Hora UTC Aire Humitat Pressió Vel. Dir. Vel. Max Dir. Intent. màx 5 min. Rad. Sol.
00:05 5.0 63.6 1023.0 3.7 SW 9.5 SSW 0.0 0.0
00:10 4.8 64.8 1023.0 0.4 WSW 2.8 WSW 0.0 0.0
00:15 4.3 66.7 1023.0 0.5 W 2.8 WSW 0.0 0.0
00:20 4.1 68.8 1023.0 1.7 E 3.9 SE 0.0 0.0
00:25 3.7 70.2 1023.0 0.3 S 2.8 NNW 0.0 0.0
00:30 3.3 71.8 1023.0 1.3 SW 4.2 WSW 0.0 0.0
00:35 3.2 73.6 1023.0 4.3 E 8.8 ESE 0.0 0.0
00:40 4.3 68.8 1022.0 4.4 SE 12.0 E 0.0 0.0
00:45 5.6 61.9 1023.0 8.2 SSE 22.9 SW 0.0 0.0
00:50 7.2 54.4 1023.0 8.7 SSW 17.6 SW 0.0 0.1
00:55 7.9 51.7 1022.0 7.4 SSW 15.2 SSW 0.0 0.0
01:00 7.8 51.8 1022.0 2.6 ESE 9.5 SSW 0.0 0.0
01:05 6.7 55.9 1022.0 3.3 ENE 9.5 ENE 0.0 0.0
01:10 5.4 61.6 1022.0 3.6 NE 6.7 E 0.0 0.0
01:15 4.7 65.0 1022.0 3.7 ENE 9.5 ENE 0.0 0.0
01:20 4.4 66.4 1023.0 3.9 E 8.5 E 0.0 0.0
01:25 3.5 70.6 1022.0 5.2 NE 11.6 ENE 0.0 0.0
01:30 3.1 72.8 1022.0 1.0 NNW 3.5 NW 0.0 0.0
01:35 3.0 73.9 1022.0 2.5 WSW 12.3 SSW 0.0 0.0
01:40 3.6 72.0 1022.0 5.9 WSW 13.8 SSW 0.0 0.0
01:45 3.6 71.3 1022.0 3.2 NNE 8.8 NNE 0.0 0.0
01:50 3.2 72.1 1023.0 2.3 ENE 6.0 NE 0.0 0.0
01:55 2.9 73.6 1023.0 0.5 SE 3.9 SSE 0.0 0.0
02:00 2.8 74.6 1022.0 0.5 NNE 3.2 NE 0.0 0.0
02:05 2.6 75.3 1022.0 1.9 NE 10.6 SE 0.0 0.0
02:10 2.6 76.0 1022.0 1.6 N 5.3 NNW 0.0 0.0
02:15 2.8 76.6 1022.0 3.1 NE 6.7 NNE 0.0 0.0
02:20 2.7 75.8 1023.0 4.2 ENE 6.4 ESE 0.0 0.0
02:25 2.5 76.8 1022.0 5.3 NE 8.5 ENE 0.0 0.0
02:30 2.1 78.5 1023.0 1.9 NNW 8.5 ENE 0.0 0.0
02:35 2.2 79.8 1022.0 2.5 NNW 3.9 NNW 0.0 0.0
02:40 2.3 79.1 1023.0 1.5 ESE 3.5 SE 0.0 0.0
02:45 2.2 78.5 1022.0 0.0 N 0.4 NNW 0.0 0.0
02:50 2.0 79.1 1023.0 2.1 NE 4.9 N 0.0 0.0
02:55 1.9 79.4 1022.0 0.9 NNE 2.8 ENE 0.0 0.0
03:00 1.7 80.6 1022.0 1.7 WSW 3.9 SE 0.0 0.0
03:05 1.8 81.2 1022.0 1.7 SSE 3.9 SE 0.0 0.0
03:10 1.7 80.8 1022.0 0.8 ESE 3.5 SSE 0.0 0.0
03:15 1.5 81.6 1022.0 2.7 NNE 8.1 ENE 0.0 0.0
03:20 1.4 82.2 1023.0 2.8 NNE 7.4 NE 0.0 0.0
03:25 1.4 83.2 1022.0 2.6 NE 6.7 ENE 0.0 0.0
03:30 1.4 82.9 1022.0 1.7 NNE 4.9 NE 0.0 0.0
03:35 1.3 83.2 1022.0 1.2 ENE 4.2 ENE 0.0 0.0
03:40 1.3 83.4 1022.0 2.0 ENE 3.9 ENE 0.0 0.0
03:45 1.4 83.7 1022.0 1.2 E 3.5 SE 0.0 0.0
03:50 1.5 83.6 1023.0 2.6 SE 4.2 SE 0.0 0.0
03:55 1.4 82.8 1022.0 1.6 NW 2.8 NW 0.0 0.0
04:00 1.2 83.2 1022.0 0.4 NW 1.8 NNW 0.0 0.0
04:05 1.1 84.1 1022.0 1.1 SE 3.5 SE 0.0 0.0
04:10 1.1 84.2 1022.0 0.8 SSW 4.2 WNW 0.0 0.0
04:15 0.8 84.4 1022.0 3.1 WSW 5.6 SSW 0.0 0.0
04:20 0.8 85.2 1022.0 1.8 SW 4.6 SW 0.0 0.0
04:25 0.8 85.8 1022.0 0.7 S 2.8 SW 0.0 0.0
04:30 0.8 85.7 1022.0 1.9 WSW 3.9 W 0.0 0.0
04:35 0.6 86.1 1022.0 1.2 SE 3.2 SE 0.0 0.0
04:40 0.7 86.4 1021.0 1.2 WSW 3.9 WSW 0.0 0.0
04:45 0.6 86.8 1021.0 1.9 SSW 3.2 SW 0.0 0.0
04:50 0.6 87.0 1022.0 1.2 SW 3.5 WNW 0.0 0.0
04:55 0.5 87.4 1021.0 0.9 SE 3.2 SSE 0.0 0.0
05:00 0.5 87.8 1021.0 2.8 SSW 5.6 SW 0.0 0.0
05:05 0.5 87.7 1021.0 1.8 WSW 4.2 SW 0.0 0.0
05:10 0.3 88.0 1021.0 1.3 NNE 3.5 ENE 0.0 0.0
05:15 0.5 89.1 1021.0 2.2 ENE 5.3 ENE 0.0 0.0
05:20 0.5 88.2 1021.0 2.4 NNE 4.6 ENE 0.0 0.0
05:25 0.3 88.4 1021.0 1.2 N 4.2 NE 0.0 0.0
05:30 0.4 89.4 1021.0 1.3 SSE 3.5 NE 0.0 0.0
05:35 0.7 89.5 1021.0 3.2 NE 5.3 NE 0.0 0.0
05:40 0.5 88.9 1021.0 1.3 NNE 4.2 NE 0.0 0.0
05:45 0.7 89.7 1021.0 1.0 SSE 4.2 SE 0.0 0.0
05:50 0.6 88.8 1022.0 1.0 NE 4.6 NE 0.0 0.0
05:55 0.4 88.9 1021.0 2.2 ENE 4.9 E 0.0 0.0
06:00 0.4 89.2 1021.0 1.9 N 5.6 ENE 0.0 0.0
06:05 0.4 89.5 1021.0 0.8 NW 2.5 NNW 0.0 0.0
06:10 0.5 90.4 1021.0 2.7 SSW 5.3 S 0.0 0.0
06:15 0.6 89.7 1021.0 4.0 NE 11.3 ENE 0.0 0.0
06:20 0.6 90.0 1022.0 6.7 NNE 13.1 ENE 0.0 0.0
06:25 0.5 89.8 1022.0 2.4 W 4.2 NW 0.0 0.0
06:30 0.8 90.6 1022.0 3.9 SW 5.6 SW 0.0 0.0
06:35 1.2 90.7 1021.0 6.2 SSW 10.2 SSW 0.0 0.0
06:40 1.6 88.1 1021.0 3.0 S 7.4 SSW 0.0 0.0
06:45 1.4 87.4 1022.0 3.5 NE 7.8 ENE 0.0 0.0
06:50 1.3 86.8 1022.0 1.8 WNW 4.6 NNW 0.0 0.0
06:55 1.5 87.5 1022.0 3.4 SSW 4.9 S 0.0 0.0
07:00 1.6 86.3 1022.0 5.5 SW 9.5 SSW 0.0 0.0
07:05 2.0 85.1 1022.0 3.4 SW 8.1 SSW 0.0 0.0
07:10 1.8 84.4 1022.0 1.9 SW 3.2 WSW 0.0 0.0
07:15 1.9 85.1 1022.0 0.4 S 2.8 S 0.0 0.8
07:20 2.0 85.0 1022.0 2.4 SSW 5.6 S 0.0 1.9
07:25 2.3 84.9 1022.0 6.2 SSW 9.5 S 0.0 4.4
07:30 2.4 83.6 1022.0 2.0 SSW 5.3 E 0.0 7.4
07:35 2.6 82.7 1022.0 5.1 NE 11.6 ENE 0.0 12.4
07:40 2.3 83.3 1022.0 3.7 NNE 9.2 NE 0.0 18.9
07:45 2.4 83.8 1022.0 3.0 NE 5.3 NNE 0.0 25.0
07:50 2.5 83.6 1023.0 2.5 S 4.9 ENE 0.0 30.8
07:55 2.7 82.7 1022.0 4.0 SW 6.7 SSW 0.0 35.6
08:00 2.7 82.4 1022.0 5.2 SW 8.5 SSW 0.0 43.6
08:05 3.0 82.3 1022.0 6.4 SW 9.2 SSW 0.0 47.5
08:10 3.0 81.7 1022.0 2.1 WSW 5.3 SW 0.0 46.3
08:15 3.0 81.8 1022.0 2.0 SW 3.9 WSW 0.0 45.2
08:20 3.0 82.0 1022.0 2.4 WSW 3.5 WSW 0.0 46.6
08:25 3.1 82.3 1022.0 2.7 SSW 4.6 S 0.0 53.0
08:30 3.3 81.9 1022.0 2.5 SW 3.9 WSW 0.0 57.5
08:35 3.4 82.5 1022.0 5.3 SW 7.8 SW 0.0 60.2
08:40 3.7 82.6 1023.0 2.3 SSW 4.6 SSW 0.0 66.4
08:45 4.0 81.8 1023.0 4.8 SSW 6.7 SW 0.0 78.7
08:50 4.3 81.9 1023.0 4.0 SSW 6.0 SSW 0.0 90.1
08:55 4.7 80.5 1023.0 2.2 SSE 4.2 S 0.0 99.1
09:00 5.1 78.8 1023.0 0.3 SE 1.4 ESE 0.0 145.2
09:05 5.6 76.7 1023.0 1.8 SSW 4.9 SW 0.0 206.9
09:10 6.5 72.9 1023.0 1.7 SSW 5.3 SW 0.0 192.9
09:15 7.3 70.9 1023.0 1.4 ENE 2.8 E 0.0 199.3
09:20 7.8 67.2 1022.0 3.8 SSE 15.9 S 0.0 164.3
09:25 8.4 65.6 1022.0 3.1 WNW 11.6 SW 0.0 152.0
09:30 9.1 58.8 1022.0 5.5 SW 15.9 S 0.0 251.4
09:35 9.9 52.2 1022.0 8.3 SW 21.9 SSW 0.0 217.5
09:40 10.4 49.4 1022.0 7.2 SW 18.3 SSW 0.0 269.1
09:45 10.8 47.7 1022.0 6.2 SSW 10.6 SW 0.0 315.3
09:50 11.3 46.1 1022.0 6.5 SSW 11.6 SW 0.0 375.3
09:55 11.7 44.8 1022.0 2.6 SSE 8.1 SSE 0.0 354.3
10:00 12.2 43.5 1022.0 1.0 E 3.2 NE 0.0 346.3
10:05 12.8 42.7 1022.0 3.0 ENE 6.7 ENE 0.0 374.7
10:10 12.0 45.3 1022.0 3.1 ESE 6.7 SE 0.0 394.5
10:15 11.9 46.0 1022.0 3.0 E 6.4 SE 0.0 393.7
10:20 11.8 46.2 1022.0 2.9 SSE 5.6 SE 0.0 401.4
10:25 12.4 43.1 1021.0 7.1 SSW 21.9 SSW 0.0 418.7
10:30 13.1 41.3 1021.0 7.0 SW 20.5 SSW 0.0 447.3
10:35 13.6 39.9 1021.0 4.9 ENE 8.1 E 0.0 455.7
10:40 13.7 40.1 1021.0 3.6 NNE 8.1 ENE 0.0 442.0
10:45 13.7 39.9 1022.0 3.5 ENE 9.5 N 0.0 368.1
10:50 13.7 41.3 1021.0 1.6 SE 3.9 S 0.0 429.9
10:55 13.6 43.1 1021.0 2.7 ESE 4.2 S 0.0 448.4
11:00 13.5 44.0 1021.0 6.4 ENE 10.9 ENE 0.0 453.9
11:05 13.6 43.3 1021.0 8.5 NE 15.2 ENE 0.0 454.8
11:10 13.5 43.2 1021.0 8.0 ENE 14.5 ENE 0.0 457.3
11:15 13.5 44.2 1022.0 4.7 ENE 7.8 E 0.0 461.9
11:20 13.7 44.5 1021.0 3.4 ENE 8.5 ENE 0.0 486.6
11:25 13.8 43.1 1021.0 4.9 ENE 10.2 ENE 0.0 378.2
11:30 13.6 44.0 1021.0 3.9 ENE 8.1 ENE 0.0 475.7
11:35 13.6 46.3 1021.0 1.5 E 4.9 E 0.0 463.0
11:40 13.9 44.9 1021.0 1.8 E 4.9 ENE 0.0 462.5
11:45 13.8 41.4 1021.0 7.8 ENE 13.1 ENE 0.0 474.7
11:50 14.0 40.6 1021.0 6.6 ENE 13.4 ENE 0.0 469.5
11:55 14.0 40.9 1021.0 3.0 ENE 6.4 ENE 0.0 458.2
12:00 14.2 42.0 1020.0 2.4 ENE 4.6 NE 0.0 447.8
12:05 14.3 39.5 1020.0 6.9 NE 15.2 ENE 0.0 460.2
12:10 14.4 38.1 1020.0 5.1 NE 9.9 ENE 0.0 460.4
12:15 14.6 38.2 1020.0 4.4 ENE 10.6 ENE 0.0 458.0
Màxima 14.6 90.7 1023.0 8.7 SSW 22.9 SW 0.0 486.6
Mínima 0.3 38.1 1020.0
Total 0.0